Impacts METAR Board
IDs:

KDTW - Detroit Metro/Wayne, MI, US

Updated at: 2100 UTC 20 Jun 2019
Potential Impact None Slight Moderate High
Time 20/09Z 20/10Z 20/11Z 20/12Z 20/13Z 20/14Z 20/15Z 20/16Z 20/17Z 20/18Z 20/19Z 20/20Z 20/21Z
Temp64 64 64 64 63 63 64 64 64 64 65 64 64
Dewpt60 60 60 60 61 61 62 60 61 61 62 61 61
Altim29.60 29.60 29.60 29.61 29.61 29.61 29.59 29.60 29.60 29.60 29.60 29.61 29.64
VIS6 5 5 2.5 1.75 1.5 2.5 2 2.5 2.5 1.75 2.5 2.5
CIG75 45 8 7 8 5 8 12 16 26 12 35 20
CoverOVCOVCOVCOVCOVCOVCOVCOVCOVCOVCOVCOVCOVC
FltCatVFRMVFRIFRIFRIFRIFRIFRIFRIFRIFRIFRIFRIFR
WXBRBR-RA BR-RA BR-RA BR-RA BR-RA BR+RA BR-RA BR-RA BR-RA BRRA BR-RA BR
WDir302030103030403040201010350
WSpd4 5 5 5 6 7 10 7 7 7 11 10 11
WGst-- -- -- -- -- -- -- -- -- -- -- -- --
Raw hourly METARs
KDTW 200853Z 03004KT 6SM BR SCT045 OVC075 18/16 A2960 RMK AO2 RAE49 SLP018 P0000 60000 T01780156 56015
KDTW 200953Z 02005KT 5SM BR SCT012 BKN045 OVC065 18/16 A2960 RMK AO2 SLP018 T01780156
KDTW 201053Z 03005KT 5SM -RA BR BKN008 OVC035 18/16 A2960 RMK AO2 RAB25 SLP018 P0000 T01780156
KDTW 201153Z 01005KT 2 1/2SM -RA BR BKN007 OVC035 18/16 A2961 RMK AO2 TWR VIS 4 RAE16B41 SLP022 P0000 60000 T01780156 10194 20178 53003
KDTW 201253Z 03006KT 1 3/4SM -RA BR OVC008 17/16 A2961 RMK AO2 TWR VIS 4 SLP023 P0012 T01720161 $
KDTW 201400Z 03007KT 1 1/2SM R03R/4500VP6000FT -RA BR BKN005 OVC010 17/16 A2961 RMK AO2 TWR VIS 2 T01720161 PNO $
KDTW 201453Z 04010KT 2 1/2SM -RA BR BKN008 OVC050 18/17 A2959 RMK AO2 SFC VIS 3 SLP017 P0005 60026 T01780167 58005
KDTW 201558Z 03007KT 2SM R03R/4000V5500FT +RA BR SCT007 BKN012 OVC020 18/16 A2960 RMK AO2 TWR VIS 2 1/2 VIS SE-SW 1 P0001 T01780156 $
KDTW 201653Z 04007KT 2 1/2SM -RA BR FEW008 BKN016 OVC030 18/16 A2960 RMK AO2 SFC VIS 3 SLP021 P0004 T01780161
KDTW 201805Z 02007KT 2 1/2SM -RA BR FEW007 OVC026 18/16 A2960 RMK AO2 CIG 014 3L P0002 T01780161
KDTW 201853Z 01011KT 1 3/4SM -RA BR SCT007 BKN012 OVC030 18/17 A2960 RMK AO2 TWR VIS 2 1/2 SLP021 P0006 T01830167
KDTW 202000Z 01010KT 2 1/2SM RA BR FEW010 SCT015 OVC035 18/16 A2961 RMK AO2 TWR VIS 3 P0000 T01780161
KDTW 202053Z 35011KT 2 1/2SM -RA BR SCT010 BKN020 OVC035 18/16 A2964 RMK AO2 TWR VIS 3 SLP034 P0001 60014 T01780161 53012



Page loaded:  21:05 UTC  |   02:05 PM Pacific  |   03:05 PM Mountain  |   04:05 PM Central  |   05:05 PM Eastern

 

ADVISORIES

FORECASTS

FORECASTS

OBSERVATIONS

USER TOOLS

ABOUT US